sensor_id;sensor_type;location;lat;lon;timestamp;P1;durP1;ratioP1;P2;durP2;ratioP2
23531;SDS011;11943;52.270;20.978;2023-05-07T00:02:02;8.27;;;4.97;;
23531;SDS011;11943;52.270;20.978;2023-05-07T00:04:28;10.60;;;5.53;;
23531;SDS011;11943;52.270;20.978;2023-05-07T00:07:00;9.93;;;4.93;;
23531;SDS011;11943;52.270;20.978;2023-05-07T00:09:26;8.80;;;5.32;;
23531;SDS011;11943;52.270;20.978;2023-05-07T00:11:52;10.30;;;5.18;;
23531;SDS011;11943;52.270;20.978;2023-05-07T00:17:20;7.15;;;4.60;;
23531;SDS011;11943;52.270;20.978;2023-05-07T00:19:46;6.82;;;4.57;;
23531;SDS011;11943;52.270;20.978;2023-05-07T00:22:11;8.07;;;5.25;;
23531;SDS011;11943;52.270;20.978;2023-05-07T00:24:37;6.13;;;5.07;;
23531;SDS011;11943;52.270;20.978;2023-05-07T00:27:02;8.48;;;5.18;;
23531;SDS011;11943;52.270;20.978;2023-05-07T00:29:28;7.82;;;4.93;;
23531;SDS011;11943;52.270;20.978;2023-05-07T00:31:54;9.25;;;4.53;;
23531;SDS011;11943;52.270;20.978;2023-05-07T00:34:19;5.85;;;4.70;;
23531;SDS011;11943;52.270;20.978;2023-05-07T00:36:45;7.43;;;4.80;;
23531;SDS011;11943;52.270;20.978;2023-05-07T00:39:11;8.05;;;4.53;;
23531;SDS011;11943;52.270;20.978;2023-05-07T00:41:36;5.88;;;4.80;;
23531;SDS011;11943;52.270;20.978;2023-05-07T00:44:02;5.18;;;4.22;;
23531;SDS011;11943;52.270;20.978;2023-05-07T00:46:27;6.20;;;4.30;;
23531;SDS011;11943;52.270;20.978;2023-05-07T00:48:55;7.80;;;4.78;;
23531;SDS011;11943;52.270;20.978;2023-05-07T00:51:20;6.55;;;4.10;;
23531;SDS011;11943;52.270;20.978;2023-05-07T00:53:46;7.00;;;5.15;;
23531;SDS011;11943;52.270;20.978;2023-05-07T00:56:13;8.40;;;4.43;;
23531;SDS011;11943;52.270;20.978;2023-05-07T00:58:38;6.05;;;4.55;;
23531;SDS011;11943;52.270;20.978;2023-05-07T01:01:05;6.82;;;5.38;;
23531;SDS011;11943;52.270;20.978;2023-05-07T01:03:31;7.80;;;4.90;;
23531;SDS011;11943;52.270;20.978;2023-05-07T01:05:56;5.50;;;4.35;;
23531;SDS011;11943;52.270;20.978;2023-05-07T01:10:51;11.57;;;4.82;;
23531;SDS011;11943;52.270;20.978;2023-05-07T01:13:18;5.07;;;4.22;;
23531;SDS011;11943;52.270;20.978;2023-05-07T01:15:44;7.22;;;4.35;;
23531;SDS011;11943;52.270;20.978;2023-05-07T01:18:10;7.55;;;4.50;;
23531;SDS011;11943;52.270;20.978;2023-05-07T01:20:36;7.53;;;4.43;;
23531;SDS011;11943;52.270;20.978;2023-05-07T01:23:01;6.82;;;4.90;;
23531;SDS011;11943;52.270;20.978;2023-05-07T01:25:28;4.20;;;3.80;;
23531;SDS011;11943;52.270;20.978;2023-05-07T01:27:55;7.35;;;4.32;;
23531;SDS011;11943;52.270;20.978;2023-05-07T01:30:21;5.85;;;4.50;;
23531;SDS011;11943;52.270;20.978;2023-05-07T01:32:57;7.80;;;4.35;;
23531;SDS011;11943;52.270;20.978;2023-05-07T01:35:37;7.68;;;4.72;;
23531;SDS011;11943;52.270;20.978;2023-05-07T01:38:05;8.05;;;4.65;;
23531;SDS011;11943;52.270;20.978;2023-05-07T01:40:31;8.13;;;4.38;;
23531;SDS011;11943;52.270;20.978;2023-05-07T01:42:59;5.95;;;4.50;;
23531;SDS011;11943;52.270;20.978;2023-05-07T01:45:26;5.60;;;4.40;;
23531;SDS011;11943;52.270;20.978;2023-05-07T01:47:52;8.52;;;4.93;;
23531;SDS011;11943;52.270;20.978;2023-05-07T01:50:19;5.72;;;4.57;;
23531;SDS011;11943;52.270;20.978;2023-05-07T01:52:46;7.35;;;4.75;;
23531;SDS011;11943;52.270;20.978;2023-05-07T01:55:12;5.60;;;4.38;;
23531;SDS011;11943;52.270;20.978;2023-05-07T01:57:38;5.90;;;4.43;;
23531;SDS011;11943;52.270;20.978;2023-05-07T02:00:04;4.95;;;4.20;;
23531;SDS011;11943;52.270;20.978;2023-05-07T02:02:30;4.75;;;4.10;;
23531;SDS011;11943;52.270;20.978;2023-05-07T02:04:56;5.35;;;4.55;;
23531;SDS011;11943;52.270;20.978;2023-05-07T02:07:22;7.93;;;4.68;;
23531;SDS011;11943;52.270;20.978;2023-05-07T02:09:47;6.90;;;4.57;;
23531;SDS011;11943;52.270;20.978;2023-05-07T02:12:13;6.00;;;4.75;;
23531;SDS011;11943;52.270;20.978;2023-05-07T02:14:39;6.28;;;4.82;;
23531;SDS011;11943;52.270;20.978;2023-05-07T02:17:04;7.03;;;3.78;;
23531;SDS011;11943;52.270;20.978;2023-05-07T02:19:30;5.97;;;4.18;;
23531;SDS011;11943;52.270;20.978;2023-05-07T02:21:55;7.07;;;3.97;;
23531;SDS011;11943;52.270;20.978;2023-05-07T02:24:21;6.35;;;3.95;;
23531;SDS011;11943;52.270;20.978;2023-05-07T02:26:47;4.60;;;3.90;;
23531;SDS011;11943;52.270;20.978;2023-05-07T02:29:12;6.80;;;4.68;;
23531;SDS011;11943;52.270;20.978;2023-05-07T02:31:38;4.35;;;3.78;;
23531;SDS011;11943;52.270;20.978;2023-05-07T02:34:04;5.10;;;4.30;;
23531;SDS011;11943;52.270;20.978;2023-05-07T02:36:29;6.47;;;4.63;;
23531;SDS011;11943;52.270;20.978;2023-05-07T02:38:55;6.85;;;4.32;;
23531;SDS011;11943;52.270;20.978;2023-05-07T02:41:20;7.30;;;4.05;;
23531;SDS011;11943;52.270;20.978;2023-05-07T02:43:46;5.40;;;4.07;;
23531;SDS011;11943;52.270;20.978;2023-05-07T02:46:12;8.00;;;4.25;;
23531;SDS011;11943;52.270;20.978;2023-05-07T02:48:37;7.35;;;4.45;;
23531;SDS011;11943;52.270;20.978;2023-05-07T02:51:03;8.38;;;4.70;;
23531;SDS011;11943;52.270;20.978;2023-05-07T02:53:30;6.38;;;4.28;;
23531;SDS011;11943;52.270;20.978;2023-05-07T02:55:57;11.82;;;4.55;;
23531;SDS011;11943;52.270;20.978;2023-05-07T02:58:24;7.38;;;4.43;;
23531;SDS011;11943;52.270;20.978;2023-05-07T03:00:51;5.35;;;4.00;;
23531;SDS011;11943;52.270;20.978;2023-05-07T03:03:17;6.88;;;3.85;;
23531;SDS011;11943;52.270;20.978;2023-05-07T03:05:42;4.57;;;3.80;;
23531;SDS011;11943;52.270;20.978;2023-05-07T03:08:08;6.28;;;3.75;;
23531;SDS011;11943;52.270;20.978;2023-05-07T03:10:35;4.88;;;3.88;;
23531;SDS011;11943;52.270;20.978;2023-05-07T03:13:02;4.47;;;3.90;;
23531;SDS011;11943;52.270;20.978;2023-05-07T03:15:28;8.15;;;3.78;;
23531;SDS011;11943;52.270;20.978;2023-05-07T03:17:53;5.15;;;4.18;;
23531;SDS011;11943;52.270;20.978;2023-05-07T03:20:19;4.70;;;3.83;;
23531;SDS011;11943;52.270;20.978;2023-05-07T03:22:45;6.65;;;4.10;;
23531;SDS011;11943;52.270;20.978;2023-05-07T03:25:11;6.38;;;4.63;;
23531;SDS011;11943;52.270;20.978;2023-05-07T03:27:37;6.13;;;4.22;;
23531;SDS011;11943;52.270;20.978;2023-05-07T03:30:03;5.70;;;4.38;;
23531;SDS011;11943;52.270;20.978;2023-05-07T03:32:29;5.38;;;4.15;;
23531;SDS011;11943;52.270;20.978;2023-05-07T03:34:54;4.55;;;3.88;;
23531;SDS011;11943;52.270;20.978;2023-05-07T03:37:20;6.25;;;4.00;;
23531;SDS011;11943;52.270;20.978;2023-05-07T03:39:46;5.25;;;4.40;;
23531;SDS011;11943;52.270;20.978;2023-05-07T03:42:12;9.95;;;4.40;;
23531;SDS011;11943;52.270;20.978;2023-05-07T03:44:38;7.75;;;4.28;;
23531;SDS011;11943;52.270;20.978;2023-05-07T03:47:04;5.35;;;4.30;;
23531;SDS011;11943;52.270;20.978;2023-05-07T03:49:29;5.30;;;4.28;;
23531;SDS011;11943;52.270;20.978;2023-05-07T03:51:55;5.32;;;3.95;;
23531;SDS011;11943;52.270;20.978;2023-05-07T03:54:21;5.80;;;4.32;;
23531;SDS011;11943;52.270;20.978;2023-05-07T03:56:47;4.85;;;3.97;;
23531;SDS011;11943;52.270;20.978;2023-05-07T03:59:12;6.65;;;3.97;;
23531;SDS011;11943;52.270;20.978;2023-05-07T04:01:38;5.80;;;3.85;;
23531;SDS011;11943;52.270;20.978;2023-05-07T04:04:04;4.63;;;4.05;;
23531;SDS011;11943;52.270;20.978;2023-05-07T04:06:30;5.22;;;3.55;;
23531;SDS011;11943;52.270;20.978;2023-05-07T04:08:56;5.72;;;4.07;;
23531;SDS011;11943;52.270;20.978;2023-05-07T04:11:22;4.57;;;3.95;;
23531;SDS011;11943;52.270;20.978;2023-05-07T04:13:48;6.40;;;3.65;;
23531;SDS011;11943;52.270;20.978;2023-05-07T04:16:13;5.10;;;4.32;;
23531;SDS011;11943;52.270;20.978;2023-05-07T04:18:39;4.80;;;4.00;;
23531;SDS011;11943;52.270;20.978;2023-05-07T04:21:06;4.82;;;3.90;;
23531;SDS011;11943;52.270;20.978;2023-05-07T04:23:39;4.93;;;3.97;;
23531;SDS011;11943;52.270;20.978;2023-05-07T04:26:05;6.80;;;4.38;;
23531;SDS011;11943;52.270;20.978;2023-05-07T04:28:30;5.72;;;3.80;;
23531;SDS011;11943;52.270;20.978;2023-05-07T04:30:56;9.75;;;4.20;;
23531;SDS011;11943;52.270;20.978;2023-05-07T04:33:22;4.22;;;3.55;;
23531;SDS011;11943;52.270;20.978;2023-05-07T04:35:48;4.75;;;3.72;;
23531;SDS011;11943;52.270;20.978;2023-05-07T04:38:14;6.18;;;4.05;;
23531;SDS011;11943;52.270;20.978;2023-05-07T04:40:39;6.20;;;3.92;;
23531;SDS011;11943;52.270;20.978;2023-05-07T04:43:06;6.47;;;3.80;;
23531;SDS011;11943;52.270;20.978;2023-05-07T04:48:00;7.82;;;3.80;;
23531;SDS011;11943;52.270;20.978;2023-05-07T04:50:25;4.55;;;3.40;;
23531;SDS011;11943;52.270;20.978;2023-05-07T04:52:51;7.28;;;3.75;;
23531;SDS011;11943;52.270;20.978;2023-05-07T04:55:17;6.25;;;2.97;;
23531;SDS011;11943;52.270;20.978;2023-05-07T04:57:43;7.18;;;3.95;;
23531;SDS011;11943;52.270;20.978;2023-05-07T05:00:08;5.82;;;3.28;;
23531;SDS011;11943;52.270;20.978;2023-05-07T05:02:35;4.18;;;3.53;;
23531;SDS011;11943;52.270;20.978;2023-05-07T05:05:01;3.80;;;3.40;;
23531;SDS011;11943;52.270;20.978;2023-05-07T05:07:27;3.28;;;2.97;;
23531;SDS011;11943;52.270;20.978;2023-05-07T05:09:53;7.18;;;3.42;;
23531;SDS011;11943;52.270;20.978;2023-05-07T05:12:20;3.42;;;3.13;;
23531;SDS011;11943;52.270;20.978;2023-05-07T05:14:46;7.80;;;3.30;;
23531;SDS011;11943;52.270;20.978;2023-05-07T05:17:12;7.00;;;3.38;;
23531;SDS011;11943;52.270;20.978;2023-05-07T05:19:37;4.78;;;3.05;;
23531;SDS011;11943;52.270;20.978;2023-05-07T05:22:03;3.38;;;3.00;;
23531;SDS011;11943;52.270;20.978;2023-05-07T05:24:29;5.30;;;3.30;;
23531;SDS011;11943;52.270;20.978;2023-05-07T05:26:55;3.67;;;3.03;;
23531;SDS011;11943;52.270;20.978;2023-05-07T05:29:21;3.28;;;2.97;;
23531;SDS011;11943;52.270;20.978;2023-05-07T05:31:47;3.25;;;3.03;;
23531;SDS011;11943;52.270;20.978;2023-05-07T05:34:13;3.80;;;3.40;;
23531;SDS011;11943;52.270;20.978;2023-05-07T05:36:38;5.90;;;3.50;;
23531;SDS011;11943;52.270;20.978;2023-05-07T05:39:04;4.18;;;3.22;;
23531;SDS011;11943;52.270;20.978;2023-05-07T05:41:30;3.50;;;3.20;;
23531;SDS011;11943;52.270;20.978;2023-05-07T05:43:56;3.90;;;2.92;;
23531;SDS011;11943;52.270;20.978;2023-05-07T05:46:22;4.28;;;2.70;;
23531;SDS011;11943;52.270;20.978;2023-05-07T05:48:47;3.72;;;3.33;;
23531;SDS011;11943;52.270;20.978;2023-05-07T05:51:13;3.40;;;2.92;;
23531;SDS011;11943;52.270;20.978;2023-05-07T05:53:38;11.45;;;3.42;;
23531;SDS011;11943;52.270;20.978;2023-05-07T05:56:04;2.90;;;2.55;;
23531;SDS011;11943;52.270;20.978;2023-05-07T05:58:30;5.80;;;3.00;;
23531;SDS011;11943;52.270;20.978;2023-05-07T06:00:56;3.83;;;3.42;;
23531;SDS011;11943;52.270;20.978;2023-05-07T06:03:23;7.50;;;3.70;;
23531;SDS011;11943;52.270;20.978;2023-05-07T06:05:48;11.27;;;2.78;;
23531;SDS011;11943;52.270;20.978;2023-05-07T06:08:14;3.95;;;3.03;;
23531;SDS011;11943;52.270;20.978;2023-05-07T06:10:40;3.80;;;2.55;;
23531;SDS011;11943;52.270;20.978;2023-05-07T06:13:06;3.53;;;2.80;;
23531;SDS011;11943;52.270;20.978;2023-05-07T06:15:31;3.65;;;2.63;;
23531;SDS011;11943;52.270;20.978;2023-05-07T06:17:57;2.50;;;2.30;;
23531;SDS011;11943;52.270;20.978;2023-05-07T06:20:23;4.07;;;2.85;;
23531;SDS011;11943;52.270;20.978;2023-05-07T06:22:48;3.65;;;2.80;;
23531;SDS011;11943;52.270;20.978;2023-05-07T06:25:14;3.28;;;2.90;;
23531;SDS011;11943;52.270;20.978;2023-05-07T06:27:40;3.78;;;3.10;;
23531;SDS011;11943;52.270;20.978;2023-05-07T06:30:06;3.30;;;2.60;;
23531;SDS011;11943;52.270;20.978;2023-05-07T06:32:32;3.20;;;2.80;;
23531;SDS011;11943;52.270;20.978;2023-05-07T06:34:58;3.58;;;2.55;;
23531;SDS011;11943;52.270;20.978;2023-05-07T06:37:24;4.18;;;2.50;;
23531;SDS011;11943;52.270;20.978;2023-05-07T06:39:50;6.95;;;2.80;;
23531;SDS011;11943;52.270;20.978;2023-05-07T06:42:16;3.53;;;3.08;;
23531;SDS011;11943;52.270;20.978;2023-05-07T06:44:41;3.53;;;2.38;;
23531;SDS011;11943;52.270;20.978;2023-05-07T06:47:07;3.33;;;2.88;;
23531;SDS011;11943;52.270;20.978;2023-05-07T06:49:32;4.22;;;2.72;;
23531;SDS011;11943;52.270;20.978;2023-05-07T06:51:58;2.95;;;2.70;;
23531;SDS011;11943;52.270;20.978;2023-05-07T06:54:24;3.33;;;2.80;;
23531;SDS011;11943;52.270;20.978;2023-05-07T06:56:50;3.67;;;2.75;;
23531;SDS011;11943;52.270;20.978;2023-05-07T06:59:15;2.53;;;2.33;;
23531;SDS011;11943;52.270;20.978;2023-05-07T07:01:41;3.42;;;3.13;;
23531;SDS011;11943;52.270;20.978;2023-05-07T07:04:06;4.75;;;3.15;;
23531;SDS011;11943;52.270;20.978;2023-05-07T07:06:32;3.70;;;3.00;;
23531;SDS011;11943;52.270;20.978;2023-05-07T07:08:58;2.95;;;2.60;;
23531;SDS011;11943;52.270;20.978;2023-05-07T07:11:25;4.45;;;2.40;;
23531;SDS011;11943;52.270;20.978;2023-05-07T07:13:51;3.33;;;2.72;;
23531;SDS011;11943;52.270;20.978;2023-05-07T07:16:16;3.25;;;2.92;;
23531;SDS011;11943;52.270;20.978;2023-05-07T07:18:42;3.80;;;2.80;;
23531;SDS011;11943;52.270;20.978;2023-05-07T07:21:07;6.20;;;3.40;;
23531;SDS011;11943;52.270;20.978;2023-05-07T07:23:33;3.05;;;2.47;;
23531;SDS011;11943;52.270;20.978;2023-05-07T07:25:59;5.13;;;2.47;;
23531;SDS011;11943;52.270;20.978;2023-05-07T07:28:25;2.45;;;2.25;;
23531;SDS011;11943;52.270;20.978;2023-05-07T07:30:50;3.53;;;2.22;;
23531;SDS011;11943;52.270;20.978;2023-05-07T07:33:16;3.80;;;2.33;;
23531;SDS011;11943;52.270;20.978;2023-05-07T07:35:42;2.97;;;2.05;;
23531;SDS011;11943;52.270;20.978;2023-05-07T07:38:07;2.97;;;2.70;;
23531;SDS011;11943;52.270;20.978;2023-05-07T07:40:36;8.07;;;2.50;;
23531;SDS011;11943;52.270;20.978;2023-05-07T07:43:01;3.40;;;2.80;;
23531;SDS011;11943;52.270;20.978;2023-05-07T07:45:27;3.83;;;2.67;;
23531;SDS011;11943;52.270;20.978;2023-05-07T07:47:53;2.67;;;2.47;;
23531;SDS011;11943;52.270;20.978;2023-05-07T07:50:20;3.00;;;2.58;;
23531;SDS011;11943;52.270;20.978;2023-05-07T07:52:45;3.15;;;2.45;;
23531;SDS011;11943;52.270;20.978;2023-05-07T07:55:11;5.75;;;2.90;;
23531;SDS011;11943;52.270;20.978;2023-05-07T07:57:37;3.53;;;2.17;;
23531;SDS011;11943;52.270;20.978;2023-05-07T08:00:03;4.88;;;2.80;;
23531;SDS011;11943;52.270;20.978;2023-05-07T08:02:30;3.10;;;2.40;;
23531;SDS011;11943;52.270;20.978;2023-05-07T08:04:56;2.95;;;2.50;;
23531;SDS011;11943;52.270;20.978;2023-05-07T08:07:22;2.67;;;2.45;;
23531;SDS011;11943;52.270;20.978;2023-05-07T08:09:47;4.03;;;2.30;;
23531;SDS011;11943;52.270;20.978;2023-05-07T08:12:13;3.67;;;2.70;;
23531;SDS011;11943;52.270;20.978;2023-05-07T08:14:40;3.67;;;2.53;;
23531;SDS011;11943;52.270;20.978;2023-05-07T08:17:06;3.03;;;2.38;;
23531;SDS011;11943;52.270;20.978;2023-05-07T08:19:31;4.53;;;2.35;;
23531;SDS011;11943;52.270;20.978;2023-05-07T08:21:57;4.85;;;2.22;;
23531;SDS011;11943;52.270;20.978;2023-05-07T08:24:23;5.60;;;2.53;;
23531;SDS011;11943;52.270;20.978;2023-05-07T08:26:48;4.07;;;1.85;;
23531;SDS011;11943;52.270;20.978;2023-05-07T08:29:14;2.72;;;2.53;;
23531;SDS011;11943;52.270;20.978;2023-05-07T08:31:40;3.80;;;2.55;;
23531;SDS011;11943;52.270;20.978;2023-05-07T08:34:06;5.10;;;2.38;;
23531;SDS011;11943;52.270;20.978;2023-05-07T08:36:32;2.67;;;2.33;;
23531;SDS011;11943;52.270;20.978;2023-05-07T08:38:57;2.30;;;2.10;;
23531;SDS011;11943;52.270;20.978;2023-05-07T08:41:24;2.30;;;1.98;;
23531;SDS011;11943;52.270;20.978;2023-05-07T08:43:50;4.40;;;2.50;;
23531;SDS011;11943;52.270;20.978;2023-05-07T08:46:22;4.05;;;2.47;;
23531;SDS011;11943;52.270;20.978;2023-05-07T08:48:48;2.45;;;2.20;;
23531;SDS011;11943;52.270;20.978;2023-05-07T08:51:18;2.65;;;2.22;;
23531;SDS011;11943;52.270;20.978;2023-05-07T08:53:45;2.60;;;2.15;;
23531;SDS011;11943;52.270;20.978;2023-05-07T08:56:13;2.17;;;1.98;;
23531;SDS011;11943;52.270;20.978;2023-05-07T08:58:40;3.38;;;2.30;;
23531;SDS011;11943;52.270;20.978;2023-05-07T09:01:07;2.88;;;1.83;;
23531;SDS011;11943;52.270;20.978;2023-05-07T09:03:36;6.72;;;2.05;;
23531;SDS011;11943;52.270;20.978;2023-05-07T09:08:29;5.93;;;2.47;;
23531;SDS011;11943;52.270;20.978;2023-05-07T09:10:54;2.40;;;2.20;;
23531;SDS011;11943;52.270;20.978;2023-05-07T09:13:20;6.55;;;2.83;;
23531;SDS011;11943;52.270;20.978;2023-05-07T09:15:46;4.43;;;2.30;;
23531;SDS011;11943;52.270;20.978;2023-05-07T09:18:12;2.63;;;2.20;;
23531;SDS011;11943;52.270;20.978;2023-05-07T09:20:39;3.53;;;1.98;;
23531;SDS011;11943;52.270;20.978;2023-05-07T09:23:07;2.67;;;1.85;;
23531;SDS011;11943;52.270;20.978;2023-05-07T09:25:33;2.38;;;1.70;;
23531;SDS011;11943;52.270;20.978;2023-05-07T09:28:00;4.35;;;2.20;;
23531;SDS011;11943;52.270;20.978;2023-05-07T09:30:33;3.00;;;2.10;;
23531;SDS011;11943;52.270;20.978;2023-05-07T09:33:00;6.57;;;1.98;;
23531;SDS011;11943;52.270;20.978;2023-05-07T09:35:28;1.83;;;1.60;;
23531;SDS011;11943;52.270;20.978;2023-05-07T09:37:54;3.58;;;1.90;;
23531;SDS011;11943;52.270;20.978;2023-05-07T09:40:23;2.28;;;2.03;;
23531;SDS011;11943;52.270;20.978;2023-05-07T09:42:50;11.20;;;2.00;;
23531;SDS011;11943;52.270;20.978;2023-05-07T09:45:21;3.95;;;2.00;;
23531;SDS011;11943;52.270;20.978;2023-05-07T09:47:47;3.80;;;2.10;;
23531;SDS011;11943;52.270;20.978;2023-05-07T09:50:14;2.90;;;1.75;;
23531;SDS011;11943;52.270;20.978;2023-05-07T09:52:41;4.23;;;2.30;;
23531;SDS011;11943;52.270;20.978;2023-05-07T09:55:08;3.85;;;2.38;;
23531;SDS011;11943;52.270;20.978;2023-05-07T09:57:35;1.88;;;1.73;;
23531;SDS011;11943;52.270;20.978;2023-05-07T10:00:02;5.00;;;2.10;;
23531;SDS011;11943;52.270;20.978;2023-05-07T10:02:32;3.05;;;1.80;;
23531;SDS011;11943;52.270;20.978;2023-05-07T10:05:01;6.07;;;1.77;;
23531;SDS011;11943;52.270;20.978;2023-05-07T10:07:28;1.90;;;1.27;;
23531;SDS011;11943;52.270;20.978;2023-05-07T10:09:54;2.60;;;1.92;;
23531;SDS011;11943;52.270;20.978;2023-05-07T10:12:20;3.67;;;1.70;;
23531;SDS011;11943;52.270;20.978;2023-05-07T10:14:46;2.20;;;1.33;;
23531;SDS011;11943;52.270;20.978;2023-05-07T10:17:13;6.65;;;1.55;;
23531;SDS011;11943;52.270;20.978;2023-05-07T10:19:42;2.80;;;1.73;;
23531;SDS011;11943;52.270;20.978;2023-05-07T10:22:11;2.33;;;1.70;;
23531;SDS011;11943;52.270;20.978;2023-05-07T10:24:40;1.70;;;1.50;;
23531;SDS011;11943;52.270;20.978;2023-05-07T10:27:08;2.70;;;1.50;;
23531;SDS011;11943;52.270;20.978;2023-05-07T10:34:54;3.53;;;1.77;;
23531;SDS011;11943;52.270;20.978;2023-05-07T10:37:23;1.55;;;1.45;;
23531;SDS011;11943;52.270;20.978;2023-05-07T10:39:50;5.00;;;1.75;;
23531;SDS011;11943;52.270;20.978;2023-05-07T10:42:17;3.00;;;1.60;;
23531;SDS011;11943;52.270;20.978;2023-05-07T10:44:42;3.08;;;1.88;;
23531;SDS011;11943;52.270;20.978;2023-05-07T10:47:09;5.97;;;1.80;;
23531;SDS011;11943;52.270;20.978;2023-05-07T10:49:37;3.45;;;1.88;;
23531;SDS011;11943;52.270;20.978;2023-05-07T10:54:44;2.13;;;1.52;;
23531;SDS011;11943;52.270;20.978;2023-05-07T11:00:00;2.72;;;1.77;;
23531;SDS011;11943;52.270;20.978;2023-05-07T11:05:23;1.88;;;1.77;;
23531;SDS011;11943;52.270;20.978;2023-05-07T11:08:02;1.98;;;1.45;;
23531;SDS011;11943;52.270;20.978;2023-05-07T11:13:16;8.38;;;2.00;;
23531;SDS011;11943;52.270;20.978;2023-05-07T11:15:43;1.92;;;1.70;;
23531;SDS011;11943;52.270;20.978;2023-05-07T11:18:11;4.20;;;1.60;;
23531;SDS011;11943;52.270;20.978;2023-05-07T11:28:42;1.83;;;1.60;;
23531;SDS011;11943;52.270;20.978;2023-05-07T11:31:09;2.05;;;1.30;;
23531;SDS011;11943;52.270;20.978;2023-05-07T11:33:38;3.30;;;1.77;;
23531;SDS011;11943;52.270;20.978;2023-05-07T11:36:04;1.92;;;1.55;;
23531;SDS011;11943;52.270;20.978;2023-05-07T11:38:36;1.73;;;1.45;;
23531;SDS011;11943;52.270;20.978;2023-05-07T11:41:03;6.40;;;1.70;;
23531;SDS011;11943;52.270;20.978;2023-05-07T11:43:30;3.72;;;1.75;;
23531;SDS011;11943;52.270;20.978;2023-05-07T11:46:07;2.60;;;1.52;;
23531;SDS011;11943;52.270;20.978;2023-05-07T11:48:36;2.88;;;1.40;;
23531;SDS011;11943;52.270;20.978;2023-05-07T11:51:04;2.35;;;1.60;;
23531;SDS011;11943;52.270;20.978;2023-05-07T11:53:37;3.83;;;1.50;;
23531;SDS011;11943;52.270;20.978;2023-05-07T11:56:08;2.15;;;1.60;;
23531;SDS011;11943;52.270;20.978;2023-05-07T11:58:35;2.50;;;1.80;;
23531;SDS011;11943;52.270;20.978;2023-05-07T12:01:01;5.53;;;1.85;;
23531;SDS011;11943;52.270;20.978;2023-05-07T12:03:27;2.40;;;1.88;;
23531;SDS011;11943;52.270;20.978;2023-05-07T12:05:53;3.03;;;1.90;;
23531;SDS011;11943;52.270;20.978;2023-05-07T12:08:19;3.95;;;1.77;;
23531;SDS011;11943;52.270;20.978;2023-05-07T12:10:46;2.47;;;1.65;;
23531;SDS011;11943;52.270;20.978;2023-05-07T12:13:19;3.63;;;1.80;;
23531;SDS011;11943;52.270;20.978;2023-05-07T12:15:50;1.85;;;1.50;;
23531;SDS011;11943;52.270;20.978;2023-05-07T12:18:20;2.88;;;1.67;;
23531;SDS011;11943;52.270;20.978;2023-05-07T12:20:46;2.78;;;1.55;;
23531;SDS011;11943;52.270;20.978;2023-05-07T12:23:13;1.73;;;1.50;;
23531;SDS011;11943;52.270;20.978;2023-05-07T12:25:40;2.45;;;1.55;;
23531;SDS011;11943;52.270;20.978;2023-05-07T12:28:14;7.75;;;1.73;;
23531;SDS011;11943;52.270;20.978;2023-05-07T12:30:48;5.75;;;1.73;;
23531;SDS011;11943;52.270;20.978;2023-05-07T12:33:18;1.65;;;1.55;;
23531;SDS011;11943;52.270;20.978;2023-05-07T12:35:48;2.60;;;1.67;;
23531;SDS011;11943;52.270;20.978;2023-05-07T12:38:15;1.50;;;1.40;;
23531;SDS011;11943;52.270;20.978;2023-05-07T12:43:15;4.00;;;1.50;;
23531;SDS011;11943;52.270;20.978;2023-05-07T12:45:53;3.85;;;1.48;;
23531;SDS011;11943;52.270;20.978;2023-05-07T12:48:20;3.90;;;1.48;;
23531;SDS011;11943;52.270;20.978;2023-05-07T12:51:04;2.50;;;1.50;;
23531;SDS011;11943;52.270;20.978;2023-05-07T12:53:31;3.55;;;1.40;;
23531;SDS011;11943;52.270;20.978;2023-05-07T12:55:58;2.38;;;1.48;;
23531;SDS011;11943;52.270;20.978;2023-05-07T13:00:55;2.75;;;1.55;;
23531;SDS011;11943;52.270;20.978;2023-05-07T13:03:24;2.83;;;1.73;;
23531;SDS011;11943;52.270;20.978;2023-05-07T13:05:51;1.75;;;1.50;;
23531;SDS011;11943;52.270;20.978;2023-05-07T13:08:30;1.77;;;1.40;;
23531;SDS011;11943;52.270;20.978;2023-05-07T13:11:02;3.50;;;1.50;;
23531;SDS011;11943;52.270;20.978;2023-05-07T13:13:31;2.58;;;1.40;;
23531;SDS011;11943;52.270;20.978;2023-05-07T13:15:58;5.95;;;1.20;;
23531;SDS011;11943;52.270;20.978;2023-05-07T13:18:25;3.75;;;1.40;;
23531;SDS011;11943;52.270;20.978;2023-05-07T13:20:52;6.07;;;1.50;;
23531;SDS011;11943;52.270;20.978;2023-05-07T13:23:18;2.17;;;1.63;;
23531;SDS011;11943;52.270;20.978;2023-05-07T13:25:44;5.35;;;1.63;;
23531;SDS011;11943;52.270;20.978;2023-05-07T13:28:10;2.08;;;1.40;;
23531;SDS011;11943;52.270;20.978;2023-05-07T13:30:35;1.70;;;1.30;;
23531;SDS011;11943;52.270;20.978;2023-05-07T13:33:01;2.88;;;1.50;;
23531;SDS011;11943;52.270;20.978;2023-05-07T13:35:27;2.42;;;1.30;;
23531;SDS011;11943;52.270;20.978;2023-05-07T13:37:53;4.13;;;1.33;;
23531;SDS011;11943;52.270;20.978;2023-05-07T13:40:19;2.97;;;1.77;;
23531;SDS011;11943;52.270;20.978;2023-05-07T13:42:46;1.47;;;1.30;;
23531;SDS011;11943;52.270;20.978;2023-05-07T13:45:12;1.40;;;1.30;;
23531;SDS011;11943;52.270;20.978;2023-05-07T13:47:39;1.60;;;1.17;;
23531;SDS011;11943;52.270;20.978;2023-05-07T13:50:06;2.53;;;1.23;;
23531;SDS011;11943;52.270;20.978;2023-05-07T13:52:33;3.05;;;1.30;;
23531;SDS011;11943;52.270;20.978;2023-05-07T13:54:58;3.15;;;1.48;;
23531;SDS011;11943;52.270;20.978;2023-05-07T13:57:24;1.65;;;1.30;;
23531;SDS011;11943;52.270;20.978;2023-05-07T13:59:50;1.92;;;1.40;;
23531;SDS011;11943;52.270;20.978;2023-05-07T14:02:15;3.63;;;1.30;;
23531;SDS011;11943;52.270;20.978;2023-05-07T14:04:41;2.42;;;1.40;;
23531;SDS011;11943;52.270;20.978;2023-05-07T14:07:07;2.03;;;1.52;;
23531;SDS011;11943;52.270;20.978;2023-05-07T14:09:32;2.95;;;1.40;;
23531;SDS011;11943;52.270;20.978;2023-05-07T14:11:58;2.13;;;1.60;;
23531;SDS011;11943;52.270;20.978;2023-05-07T14:14:24;1.73;;;1.20;;
23531;SDS011;11943;52.270;20.978;2023-05-07T14:16:50;1.83;;;1.50;;
23531;SDS011;11943;52.270;20.978;2023-05-07T14:19:15;2.92;;;1.13;;
23531;SDS011;11943;52.270;20.978;2023-05-07T14:21:41;1.45;;;1.05;;
23531;SDS011;11943;52.270;20.978;2023-05-07T14:24:07;1.30;;;1.20;;
23531;SDS011;11943;52.270;20.978;2023-05-07T14:26:35;3.10;;;1.48;;
23531;SDS011;11943;52.270;20.978;2023-05-07T14:29:01;2.53;;;1.40;;
23531;SDS011;11943;52.270;20.978;2023-05-07T14:31:27;5.55;;;1.55;;
23531;SDS011;11943;52.270;20.978;2023-05-07T14:33:53;2.38;;;1.60;;
23531;SDS011;11943;52.270;20.978;2023-05-07T14:36:19;2.65;;;1.20;;
23531;SDS011;11943;52.270;20.978;2023-05-07T14:38:46;2.72;;;1.50;;
23531;SDS011;11943;52.270;20.978;2023-05-07T14:41:12;1.70;;;1.60;;
23531;SDS011;11943;52.270;20.978;2023-05-07T14:43:38;2.20;;;1.75;;
23531;SDS011;11943;52.270;20.978;2023-05-07T14:46:03;1.48;;;1.38;;
23531;SDS011;11943;52.270;20.978;2023-05-07T14:48:29;7.47;;;1.65;;
23531;SDS011;11943;52.270;20.978;2023-05-07T14:50:55;4.97;;;2.25;;
23531;SDS011;11943;52.270;20.978;2023-05-07T14:53:21;1.42;;;1.33;;
23531;SDS011;11943;52.270;20.978;2023-05-07T14:55:47;1.70;;;1.60;;
23531;SDS011;11943;52.270;20.978;2023-05-07T14:58:13;1.60;;;1.50;;
23531;SDS011;11943;52.270;20.978;2023-05-07T15:00:39;2.97;;;1.67;;
23531;SDS011;11943;52.270;20.978;2023-05-07T15:03:05;1.67;;;1.40;;
23531;SDS011;11943;52.270;20.978;2023-05-07T15:05:33;2.88;;;1.50;;
23531;SDS011;11943;52.270;20.978;2023-05-07T15:07:58;2.78;;;1.80;;
23531;SDS011;11943;52.270;20.978;2023-05-07T15:10:24;1.83;;;1.50;;